Time;durP1;ratioP1;P1;durP2;ratioP2;P2;SDS_P1;SDS_P2;PMS_P1;PMS_P2;Temp;Humidity;BMP_temperature;BMP_pressure;BME280_temperature;BME280_humidity;BME280_pressure;Samples;Min_cycle;Max_cycle;Signal;HPM_P1;HPM_P2
2022/04/21 00:00:04;;;;;;;8.45;6.95;;;7.50;99.90;;;;;;5118914;27;20023;-69
2022/04/21 00:02:31;;;;;;;9.98;7.13;;;7.60;99.90;;;;;;5130795;27;20043;-70
2022/04/21 00:04:57;;;;;;;10.45;7.15;;;7.60;99.90;;;;;;5127371;27;20043;-70
2022/04/21 00:07:23;;;;;;;9.15;6.72;;;7.50;99.90;;;;;;5127610;27;20037;-69
2022/04/21 00:09:49;;;;;;;10.55;6.85;;;7.30;99.90;;;;;;5126060;27;20039;-69
2022/04/21 00:12:15;;;;;;;12.38;6.75;;;7.00;99.90;;;;;;5102877;27;20026;-70
2022/04/21 00:14:41;;;;;;;9.23;6.93;;;6.90;99.90;;;;;;5112238;27;20038;-70
2022/04/21 00:17:10;;;;;;;10.57;7.28;;;6.80;99.90;;;;;;5126073;27;20035;-70
2022/04/21 00:19:37;;;;;;;11.52;7.28;;;6.80;99.90;;;;;;5109583;27;20038;-70
2022/04/21 00:24:48;;;;;;;13.52;7.97;;;6.80;99.90;;;;;;5126804;27;20086;-69
2022/04/21 00:27:14;;;;;;;12.25;7.88;;;6.90;99.90;;;;;;5105062;27;20107;-70
2022/04/21 00:29:41;;;;;;;13.07;8.30;;;7.00;99.90;;;;;;5140060;27;20105;-70
2022/04/21 00:32:06;;;;;;;12.05;8.20;;;6.90;99.90;;;;;;5109936;27;20035;-69
2022/04/21 00:34:33;;;;;;;11.73;8.18;;;7.00;99.90;;;;;;5130610;27;20041;-70
2022/04/21 00:36:59;;;;;;;12.60;9.63;;;6.90;99.90;;;;;;5129795;27;20306;-70
2022/04/21 00:39:25;;;;;;;12.57;8.50;;;6.90;99.90;;;;;;5147562;27;20074;-70
2022/04/21 00:42:01;;;;;;;11.98;9.02;;;6.90;99.90;;;;;;5129129;27;20046;-70
2022/04/21 00:44:30;;;;;;;11.48;8.30;;;6.90;99.90;;;;;;5127027;27;20241;-70
2022/04/21 00:47:01;;;;;;;14.10;8.55;;;7.00;99.90;;;;;;5129751;27;20019;-70
2022/04/21 00:49:28;;;;;;;12.55;9.25;;;7.00;99.90;;;;;;5132237;27;20340;-70
2022/04/21 00:51:55;;;;;;;12.38;8.80;;;6.90;99.90;;;;;;5098945;27;20269;-70
2022/04/21 00:54:22;;;;;;;13.05;9.73;;;7.00;99.90;;;;;;5114790;27;20351;-70
2022/04/21 00:56:49;;;;;;;13.80;9.55;;;6.90;99.90;;;;;;5110771;27;20038;-70
2022/04/21 00:59:16;;;;;;;14.93;9.82;;;7.00;99.90;;;;;;5092523;27;20027;-70
2022/04/21 01:04:26;;;;;;;12.55;8.35;;;7.10;99.90;;;;;;5141880;27;20127;-71
2022/04/21 01:06:52;;;;;;;13.02;9.10;;;7.00;99.90;;;;;;5134646;27;20087;-70
2022/04/21 01:09:18;;;;;;;12.32;9.05;;;7.10;99.90;;;;;;5122310;27;20098;-70
2022/04/21 01:11:45;;;;;;;13.77;9.40;;;7.00;99.90;;;;;;5132430;27;20355;-70
2022/04/21 01:14:13;;;;;;;17.23;10.15;;;7.10;99.90;;;;;;5102269;27;20051;-70
2022/04/21 01:16:39;;;;;;;14.65;9.90;;;7.00;99.90;;;;;;5113529;27;20034;-70
2022/04/21 01:19:07;;;;;;;13.77;9.45;;;7.10;99.90;;;;;;5140044;27;20071;-70
2022/04/21 01:21:32;;;;;;;13.10;10.02;;;7.00;99.90;;;;;;5125035;27;20035;-70
2022/04/21 01:23:58;;;;;;;16.00;10.35;;;7.00;99.90;;;;;;5126654;27;20102;-69
2022/04/21 01:26:28;;;;;;;15.90;10.07;;;6.90;99.90;;;;;;5128801;27;20023;-70
2022/04/21 01:28:55;;;;;;;15.38;10.23;;;7.00;99.90;;;;;;5124277;27;20349;-70
2022/04/21 01:31:24;;;;;;;13.77;9.13;;;7.00;99.90;;;;;;5108681;27;20062;-71
2022/04/21 01:33:50;;;;;;;15.15;10.23;;;7.10;99.90;;;;;;5125287;27;20094;-70
2022/04/21 01:36:17;;;;;;;14.85;10.43;;;7.40;99.90;;;;;;5138271;27;20034;-70
2022/04/21 01:41:26;;;;;;;16.15;10.73;;;7.20;99.90;;;;;;5109378;27;20035;-69
2022/04/21 01:43:52;;;;;;;13.40;9.23;;;7.30;99.90;;;;;;5125044;27;20026;-70
2022/04/21 01:46:18;;;;;;;15.85;10.20;;;7.10;99.90;;;;;;5130458;27;20056;-70
2022/04/21 01:48:43;;;;;;;14.27;9.80;;;7.10;99.90;;;;;;5120603;27;20032;-70
2022/04/21 01:51:09;;;;;;;14.68;10.32;;;7.00;99.90;;;;;;5105748;27;20030;-70
2022/04/21 01:53:35;;;;;;;13.18;9.50;;;6.90;99.90;;;;;;5094864;27;20046;-70
2022/04/21 01:56:01;;;;;;;15.90;10.60;;;7.00;99.90;;;;;;5123248;27;20043;-70
2022/04/21 01:58:30;;;;;;;18.10;11.63;;;7.10;99.90;;;;;;5122053;27;20095;-70
2022/04/21 02:00:56;;;;;;;14.27;10.10;;;7.20;99.90;;;;;;5128949;27;20027;-69
2022/04/21 02:03:22;;;;;;;14.43;9.82;;;7.20;99.90;;;;;;5097868;27;20237;-69
2022/04/21 02:05:48;;;;;;;16.45;11.13;;;7.10;99.90;;;;;;5108213;27;20139;-69
2022/04/21 02:08:13;;;;;;;13.93;9.73;;;7.10;99.90;;;;;;5121269;27;20061;-69
2022/04/21 02:10:39;;;;;;;14.85;9.85;;;7.10;99.90;;;;;;5135234;27;20337;-69
2022/04/21 02:13:05;;;;;;;13.30;10.30;;;7.00;99.90;;;;;;5129430;27;20051;-69
2022/04/21 02:15:31;;;;;;;13.68;9.55;;;6.80;99.90;;;;;;5123434;27;20068;-70
2022/04/21 02:17:58;;;;;;;12.75;9.30;;;6.70;99.90;;;;;;5126345;27;20035;-70
2022/04/21 02:20:24;;;;;;;14.52;9.93;;;6.70;99.90;;;;;;5143088;27;20026;-70
2022/04/21 02:22:50;;;;;;;13.98;9.68;;;6.70;99.90;;;;;;5145300;27;20083;-70
2022/04/21 02:25:16;;;;;;;12.98;9.60;;;6.80;99.90;;;;;;5128073;27;20045;-71
2022/04/21 02:27:45;;;;;;;15.93;10.35;;;6.90;99.90;;;;;;5141771;27;20030;-71
2022/04/21 02:30:12;;;;;;;15.27;10.40;;;6.80;99.90;;;;;;5137199;27;20148;-70
2022/04/21 02:32:39;;;;;;;13.80;10.48;;;7.00;99.90;;;;;;5107565;27;20046;-71
2022/04/21 02:35:06;;;;;;;16.85;10.45;;;6.90;99.90;;;;;;5158090;27;20064;-70
2022/04/21 02:37:40;;;;;;;16.55;9.90;;;6.90;99.90;;;;;;5140704;27;20083;-70
2022/04/21 02:40:07;;;;;;;15.05;10.35;;;7.80;99.90;;;;;;5136177;27;20102;-70
2022/04/21 02:42:33;;;;;;;17.73;9.00;;;7.40;99.90;;;;;;5111656;27;20031;-70
2022/04/21 02:44:59;;;;;;;11.40;8.68;;;7.50;99.90;;;;;;5123783;27;20042;-69
2022/04/21 02:47:25;;;;;;;15.90;9.98;;;8.10;99.90;;;;;;5107423;27;20198;-69
2022/04/21 02:49:52;;;;;;;13.00;9.30;;;8.10;99.90;;;;;;5121894;27;20071;-69
2022/04/21 02:52:18;;;;;;;16.27;9.30;;;7.70;99.90;;;;;;5113081;27;20043;-70
2022/04/21 02:57:30;;;;;;;13.17;8.67;;;7.70;99.90;;;;;;5124242;28;20035;-70
2022/04/21 03:00:03;;;;;;;10.70;7.53;;;7.70;99.90;;;;;;5116000;27;20039;-70
2022/04/21 03:02:28;;;;;;;10.82;7.22;;;7.60;99.90;;;;;;5134949;27;20193;-69
2022/04/21 03:04:54;;;;;;;12.30;8.20;;;7.60;99.90;;;;;;5123781;28;20047;-69
2022/04/21 03:07:22;;;;;;;10.75;7.22;;;7.70;99.90;;;;;;5106959;28;20035;-69
2022/04/21 03:09:49;;;;;;;12.63;8.10;;;7.70;99.90;;;;;;5106401;28;20043;-70
2022/04/21 03:12:15;;;;;;;10.77;7.60;;;7.80;99.90;;;;;;5137879;27;20093;-70
2022/04/21 03:14:41;;;;;;;11.23;7.93;;;7.70;99.90;;;;;;5124060;28;20259;-70
2022/04/21 03:17:09;;;;;;;10.32;7.45;;;7.60;99.90;;;;;;5107054;28;20126;-70
2022/04/21 03:19:37;;;;;;;9.43;7.13;;;7.60;99.90;;;;;;5122439;27;20031;-69
2022/04/21 03:24:48;;;;;;;10.73;7.13;;;7.50;99.90;;;;;;5133628;27;20086;-69
2022/04/21 03:27:15;;;;;;;9.73;6.82;;;7.40;99.90;;;;;;5122638;27;20038;-69
2022/04/21 03:29:41;;;;;;;11.95;7.38;;;7.30;99.90;;;;;;5108657;27;20122;-69
2022/04/21 03:32:09;;;;;;;9.73;7.20;;;7.30;99.90;;;;;;5137503;27;20037;-69
2022/04/21 03:34:40;;;;;;;9.75;7.03;;;7.40;99.90;;;;;;5140405;27;20031;-69
2022/04/21 03:37:07;;;;;;;11.20;7.65;;;7.30;99.90;;;;;;5133583;27;20038;-69
2022/04/21 03:39:33;;;;;;;10.13;7.00;;;7.30;99.90;;;;;;5131797;27;20050;-69
2022/04/21 03:42:01;;;;;;;10.40;7.10;;;7.20;99.90;;;;;;5143546;27;20381;-69
2022/04/21 03:44:27;;;;;;;9.90;7.72;;;7.20;99.90;;;;;;5127987;27;20317;-70
2022/04/21 03:46:57;;;;;;;10.07;6.95;;;7.20;99.90;;;;;;5129774;27;20030;-70
2022/04/21 03:49:24;;;;;;;14.63;7.03;;;7.20;99.90;;;;;;5130685;27;20237;-70
2022/04/21 03:51:50;;;;;;;9.63;7.40;;;7.10;99.90;;;;;;5138880;27;20035;-70
2022/04/21 03:54:16;;;;;;;9.73;6.57;;;7.00;99.90;;;;;;5110429;27;20260;-69
2022/04/21 03:56:41;;;;;;;9.98;6.60;;;7.20;99.90;;;;;;5120844;27;20035;-69
2022/04/21 03:59:07;;;;;;;9.65;6.65;;;7.20;99.90;;;;;;5110588;27;20041;-69
2022/04/21 04:01:33;;;;;;;9.68;6.53;;;7.00;99.90;;;;;;5109766;27;20270;-70
2022/04/21 04:03:59;;;;;;;12.05;7.78;;;7.20;99.90;;;;;;5110810;27;20058;-69
2022/04/21 04:11:53;;;;;;;14.23;7.70;;;6.80;99.90;;;;;;5138781;27;20026;-69
2022/04/21 04:14:21;;;;;;;13.13;7.47;;;6.80;99.90;;;;;;5147165;27;20313;-69
2022/04/21 04:16:47;;;;;;;10.98;7.07;;;6.90;99.90;;;;;;5106389;27;20023;-69
2022/04/21 04:19:13;;;;;;;11.48;7.60;;;6.80;99.90;;;;;;5123986;27;20137;-69
2022/04/21 04:21:39;;;;;;;10.13;7.82;;;6.80;99.90;;;;;;5127243;27;20031;-69
2022/04/21 04:24:07;;;;;;;10.20;7.25;;;6.80;99.90;;;;;;5146808;27;20329;-69
2022/04/21 04:26:33;;;;;;;12.00;7.57;;;6.70;99.90;;;;;;5110946;27;20046;-69
2022/04/21 04:28:59;;;;;;;11.45;7.45;;;6.70;99.90;;;;;;5122242;27;20027;-69
2022/04/21 04:31:25;;;;;;;11.38;7.53;;;6.70;99.90;;;;;;5138326;27;20030;-69
2022/04/21 04:33:51;;;;;;;10.43;6.72;;;6.70;99.90;;;;;;5127789;27;20034;-69
2022/04/21 04:36:17;;;;;;;11.52;7.30;;;6.80;99.90;;;;;;5078162;27;20067;-69
2022/04/21 04:38:44;;;;;;;11.23;7.55;;;6.90;99.90;;;;;;5116953;27;20030;-71
2022/04/21 04:43:54;;;;;;;11.52;8.13;;;6.90;99.90;;;;;;5125692;27;20077;-71
2022/04/21 04:46:35;;;;;;;11.82;8.55;;;7.00;99.90;;;;;;5128337;27;20031;-70
2022/04/21 04:49:06;;;;;;;12.35;8.00;;;7.10;99.90;;;;;;5129375;27;20057;-71
2022/04/21 04:51:34;;;;;;;12.82;8.32;;;7.10;99.90;;;;;;5137564;27;20209;-71
2022/04/21 04:54:00;;;;;;;11.95;8.73;;;7.10;99.90;;;;;;5128169;27;20321;-70
2022/04/21 04:56:29;;;;;;;9.90;7.72;;;7.20;99.90;;;;;;5136035;27;20026;-70
2022/04/21 04:58:56;;;;;;;11.30;7.90;;;7.30;99.90;;;;;;5122030;27;20064;-70
2022/04/21 05:01:30;;;;;;;11.82;7.88;;;7.40;99.90;;;;;;5124591;27;20031;-71
2022/04/21 05:04:05;;;;;;;12.73;8.73;;;7.40;99.90;;;;;;5107192;27;20050;-71
2022/04/21 05:06:39;;;;;;;12.25;8.27;;;7.50;99.90;;;;;;5131014;27;20042;-71
2022/04/21 05:09:06;;;;;;;13.85;8.38;;;7.40;99.90;;;;;;5124527;27;20083;-70
2022/04/21 05:11:38;;;;;;;14.73;8.13;;;7.50;99.90;;;;;;5107155;27;20065;-71
2022/04/21 05:14:07;;;;;;;10.57;8.27;;;7.50;99.90;;;;;;5110813;27;20034;-70
2022/04/21 05:16:33;;;;;;;13.13;7.35;;;7.50;99.90;;;;;;5126687;27;20027;-70
2022/04/21 05:18:59;;;;;;;11.13;8.18;;;7.70;99.90;;;;;;5141841;27;20076;-70
2022/04/21 05:21:25;;;;;;;10.93;7.93;;;7.80;99.90;;;;;;5127966;27;20171;-70
2022/04/21 05:23:57;;;;;;;12.60;7.85;;;8.00;99.90;;;;;;5110053;27;20039;-69
2022/04/21 05:26:24;;;;;;;10.55;7.30;;;8.10;99.90;;;;;;5145573;27;20098;-69
2022/04/21 05:28:50;;;;;;;9.38;6.93;;;8.10;99.90;;;;;;5127705;27;20037;-69
2022/04/21 05:31:16;;;;;;;12.20;6.80;;;8.20;99.90;;;;;;5126145;27;20065;-69
2022/04/21 05:33:42;;;;;;;9.80;7.35;;;8.20;99.90;;;;;;5127159;27;20030;-69
2022/04/21 05:36:09;;;;;;;12.45;7.30;;;8.20;99.90;;;;;;5140120;27;20747;-69
2022/04/21 05:38:35;;;;;;;10.35;6.70;;;8.20;99.90;;;;;;5123025;27;20026;-69
2022/04/21 05:41:02;;;;;;;10.35;7.32;;;8.40;99.90;;;;;;5137992;27;20264;-69
2022/04/21 05:43:39;;;;;;;9.65;6.45;;;8.30;99.90;;;;;;5125095;27;20255;-70
2022/04/21 05:46:06;;;;;;;9.45;6.22;;;8.60;99.90;;;;;;5107817;27;20050;-69
2022/04/21 05:48:32;;;;;;;10.98;6.80;;;8.60;99.90;;;;;;5142053;27;20115;-70
2022/04/21 05:50:59;;;;;;;10.68;7.40;;;8.70;99.90;;;;;;5117306;27;20043;-70
2022/04/21 05:53:26;;;;;;;12.55;6.88;;;8.70;99.90;;;;;;5110771;27;20079;-71
2022/04/21 05:55:53;;;;;;;9.65;7.38;;;8.70;99.90;;;;;;5129975;27;20053;-70
2022/04/21 05:58:22;;;;;;;9.05;6.65;;;8.70;99.90;;;;;;5128311;27;20053;-70
2022/04/21 06:00:48;;;;;;;9.27;6.78;;;8.80;99.90;;;;;;5109985;27;20082;-71
2022/04/21 06:03:14;;;;;;;9.27;7.03;;;8.80;99.90;;;;;;5094447;28;20059;-71
2022/04/21 06:05:40;;;;;;;9.10;6.45;;;8.80;99.90;;;;;;5101229;28;20055;-72
2022/04/21 06:08:06;;;;;;;8.73;6.70;;;8.90;99.90;;;;;;5126770;27;20036;-71
2022/04/21 06:10:33;;;;;;;7.85;6.53;;;9.00;99.90;;;;;;5101307;28;20036;-70
2022/04/21 06:13:01;;;;;;;8.10;6.13;;;9.10;99.90;;;;;;5101303;28;20058;-70
2022/04/21 06:15:27;;;;;;;9.77;6.55;;;9.10;99.90;;;;;;5110138;28;20285;-70
2022/04/21 06:17:53;;;;;;;7.80;5.22;;;9.20;99.90;;;;;;5077850;28;20027;-70
2022/04/21 06:20:36;;;;;;;8.07;6.00;;;9.40;99.90;;;;;;5100842;28;20310;-70
2022/04/21 06:23:02;;;;;;;7.72;5.63;;;9.40;99.90;;;;;;5096625;28;20369;-71
2022/04/21 06:25:27;;;;;;;7.32;5.88;;;9.40;99.90;;;;;;5075874;28;20043;-71
2022/04/21 06:27:53;;;;;;;10.52;6.43;;;9.50;99.90;;;;;;5100804;28;20062;-70
2022/04/21 06:30:19;;;;;;;7.80;6.00;;;9.70;99.90;;;;;;5096458;28;20027;-70
2022/04/21 06:32:45;;;;;;;7.22;5.80;;;9.70;99.90;;;;;;5131257;27;20260;-71
2022/04/21 06:35:12;;;;;;;9.00;5.40;;;9.90;99.90;;;;;;5123628;27;20322;-71
2022/04/21 06:37:39;;;;;;;7.82;5.70;;;9.80;99.90;;;;;;5136135;27;20032;-71
2022/04/21 06:40:05;;;;;;;8.90;5.70;;;10.00;99.90;;;;;;5098294;28;20040;-71
2022/04/21 06:42:31;;;;;;;7.38;5.30;;;10.10;99.90;;;;;;5090995;28;20094;-72
2022/04/21 06:48:02;;;;;;;6.18;4.45;;;10.40;99.90;;;;;;5084150;28;20291;-69
2022/04/21 06:50:32;;;;;;;6.65;4.47;;;10.50;99.90;;;;;;5105448;28;20330;-69
2022/04/21 06:52:58;;;;;;;5.28;4.13;;;10.60;99.90;;;;;;5097503;28;20032;-68
2022/04/21 06:55:24;;;;;;;5.03;3.88;;;10.80;99.90;;;;;;5099582;28;20039;-69
2022/04/21 06:57:50;;;;;;;6.65;4.75;;;10.80;99.90;;;;;;5067552;28;20210;-69
2022/04/21 07:00:16;;;;;;;6.13;4.20;;;11.10;99.90;;;;;;5131205;27;20043;-69
2022/04/21 07:02:42;;;;;;;4.75;3.78;;;11.10;99.90;;;;;;5089954;28;20055;-69
2022/04/21 07:05:13;;;;;;;5.78;3.78;;;11.00;99.90;;;;;;5114529;28;20047;-69
2022/04/21 07:07:40;;;;;;;5.63;3.47;;;11.20;99.90;;;;;;5120852;28;20252;-68
2022/04/21 07:10:07;;;;;;;5.10;3.28;;;11.40;99.90;;;;;;5139882;28;20062;-68
2022/04/21 07:12:34;;;;;;;3.90;3.03;;;11.60;99.90;;;;;;5101358;28;20038;-70
2022/04/21 07:15:02;;;;;;;3.10;2.70;;;11.70;99.90;;;;;;5124267;28;20247;-71
2022/04/21 07:17:28;;;;;;;4.07;2.80;;;11.70;99.90;;;;;;5118747;28;20043;-70
2022/04/21 07:19:53;;;;;;;2.42;2.22;;;11.90;99.90;;;;;;5110067;28;20071;-69
2022/04/21 07:22:20;;;;;;;4.65;2.70;;;12.00;99.90;;;;;;5130161;28;20031;-69
2022/04/21 07:24:48;;;;;;;3.20;2.28;;;12.10;99.90;;;;;;5129526;28;20187;-69
2022/04/21 07:27:14;;;;;;;3.20;2.33;;;12.10;99.90;;;;;;5116637;28;20102;-70
2022/04/21 07:29:40;;;;;;;3.50;2.25;;;12.20;99.90;;;;;;5110149;28;20427;-70
2022/04/21 07:32:06;;;;;;;2.75;1.63;;;12.30;99.90;;;;;;5115281;28;20179;-71
2022/04/21 07:34:33;;;;;;;3.25;2.67;;;12.40;99.90;;;;;;5132830;28;20098;-70
2022/04/21 07:36:59;;;;;;;3.17;2.13;;;12.40;99.90;;;;;;5121151;28;20050;-70
2022/04/21 07:39:24;;;;;;;2.47;2.28;;;12.50;99.90;;;;;;5109310;28;20024;-70
2022/04/21 07:41:50;;;;;;;2.58;1.70;;;12.50;99.90;;;;;;5119828;28;20080;-71
2022/04/21 07:44:16;;;;;;;2.78;1.92;;;12.50;99.90;;;;;;5118335;28;20034;-71
2022/04/21 07:46:42;;;;;;;2.63;2.00;;;12.60;99.90;;;;;;5131433;28;20028;-71
2022/04/21 07:53:12;;;;;;;2.80;2.07;;;12.60;99.90;;;;;;5118628;28;20031;-69
2022/04/21 07:54:38;;;;;;;2.25;1.73;;;12.70;99.90;;;;;;5125086;28;20040;-69
2022/04/21 07:57:04;;;;;;;3.63;2.30;;;12.60;99.90;;;;;;5105653;28;20207;-69
2022/04/21 07:59:30;;;;;;;4.13;2.50;;;12.60;99.90;;;;;;5103049;28;20060;-70
2022/04/21 08:01:56;;;;;;;3.22;2.13;;;12.80;99.90;;;;;;5122865;28;20032;-70
2022/04/21 08:04:22;;;;;;;3.28;2.60;;;12.90;99.90;;;;;;5106752;28;20077;-71
2022/04/21 08:06:49;;;;;;;5.65;2.50;;;12.80;99.90;;;;;;5116994;27;20034;-70
2022/04/21 08:09:15;;;;;;;6.03;2.60;;;12.90;99.90;;;;;;5124900;28;20300;-70
2022/04/21 08:11:43;;;;;;;2.95;2.20;;;12.90;99.90;;;;;;5139321;27;20137;-70
2022/04/21 08:14:09;;;;;;;4.22;2.50;;;13.00;99.90;;;;;;5123741;27;20338;-70
2022/04/21 08:16:34;;;;;;;4.97;2.72;;;12.90;99.90;;;;;;5140444;27;20025;-70
2022/04/21 08:19:00;;;;;;;3.60;2.88;;;12.90;99.90;;;;;;5095806;27;20344;-70
2022/04/21 08:21:26;;;;;;;6.43;3.33;;;13.10;99.90;;;;;;5124810;27;20035;-69
2022/04/21 08:23:52;;;;;;;3.08;2.20;;;13.20;99.90;;;;;;5108917;27;20043;-69
2022/04/21 08:34:30;;;;;;;3.80;2.63;;;13.60;99.90;;;;;;5136038;27;20050;-69
2022/04/21 08:36:56;;;;;;;3.17;2.25;;;13.70;99.90;;;;;;5156412;27;20026;-70
2022/04/21 08:39:22;;;;;;;4.13;3.05;;;13.70;99.90;;;;;;5143884;27;20041;-69
2022/04/21 08:41:52;;;;;;;4.15;2.90;;;13.80;99.90;;;;;;5131634;27;20023;-71
2022/04/21 08:44:21;;;;;;;3.40;3.10;;;13.70;99.90;;;;;;5129440;27;20050;-69
2022/04/21 08:46:50;;;;;;;3.55;3.00;;;13.80;99.90;;;;;;5120270;27;20316;-69
2022/04/21 08:49:18;;;;;;;3.25;2.55;;;13.90;99.90;;;;;;5166448;27;20388;-69
2022/04/21 08:51:44;;;;;;;5.40;2.72;;;14.00;99.90;;;;;;5116994;27;20186;-69
2022/04/21 08:54:10;;;;;;;2.92;2.45;;;14.10;99.90;;;;;;5144002;27;20106;-69
2022/04/21 08:56:36;;;;;;;3.80;2.63;;;14.10;99.90;;;;;;5126345;27;20031;-69
2022/04/21 08:59:02;;;;;;;3.53;2.70;;;14.30;99.90;;;;;;5091755;27;20042;-69
2022/04/21 09:01:27;;;;;;;3.63;3.15;;;14.60;99.90;;;;;;5109667;27;20094;-69
2022/04/21 09:03:53;;;;;;;3.85;3.20;;;14.60;99.90;;;;;;5108225;27;20051;-68
2022/04/21 09:06:25;;;;;;;6.15;2.67;;;14.40;99.90;;;;;;5131139;27;20272;-69
2022/04/21 09:09:13;;;;;;;5.05;2.65;;;14.40;99.90;;;;;;5117548;27;20037;-69
2022/04/21 09:11:47;;;;;;;4.60;2.90;;;14.70;99.90;;;;;;5123966;27;20094;-70
2022/04/21 09:14:15;;;;;;;5.22;3.30;;;14.80;99.90;;;;;;5115754;27;20278;-71
2022/04/21 09:16:41;;;;;;;3.60;3.10;;;14.80;99.90;;;;;;5123292;27;20041;-70
2022/04/21 09:19:07;;;;;;;4.13;2.95;;;14.60;99.90;;;;;;5127152;27;20054;-69
2022/04/21 09:21:40;;;;;;;4.97;2.92;;;14.80;99.90;;;;;;5125009;27;20419;-68
2022/04/21 09:24:22;;;;;;;4.97;3.00;;;14.90;99.90;;;;;;5142686;27;20466;-69
2022/04/21 09:26:49;;;;;;;3.92;3.10;;;15.30;99.90;;;;;;5123922;27;20337;-69
2022/04/21 09:29:24;;;;;;;5.65;3.00;;;15.40;99.90;;;;;;5132081;27;20054;-70
2022/04/21 09:32:02;;;;;;;3.22;2.88;;;15.70;99.90;;;;;;5122437;27;20039;-69
2022/04/21 09:34:29;;;;;;;5.75;3.10;;;15.60;99.90;;;;;;5104220;27;20043;-70
2022/04/21 09:36:58;;;;;;;4.45;2.95;;;15.20;99.90;;;;;;5105628;27;20233;-69
2022/04/21 09:39:24;;;;;;;5.35;3.60;;;15.50;99.90;;;;;;5106737;27;20110;-70
2022/04/21 09:41:54;;;;;;;4.70;3.33;;;15.50;99.90;;;;;;5121564;27;20039;-70
2022/04/21 09:47:08;;;;;;;5.25;3.65;;;15.30;99.90;;;;;;5109185;27;20411;-69
2022/04/21 09:49:35;;;;;;;4.10;3.08;;;15.50;99.90;;;;;;5109143;27;20277;-69
2022/04/21 09:52:01;;;;;;;4.15;2.80;;;16.00;99.90;;;;;;5115055;27;20042;-69
2022/04/21 09:54:30;;;;;;;3.28;2.97;;;15.90;99.90;;;;;;5121654;27;20484;-70
2022/04/21 09:56:57;;;;;;;5.68;2.58;;;15.80;99.90;;;;;;5124169;27;20046;-70
2022/04/21 09:59:24;;;;;;;3.38;2.70;;;15.90;99.90;;;;;;5122259;27;20030;-69
2022/04/21 10:01:50;;;;;;;4.55;2.95;;;16.20;99.90;;;;;;5122500;27;20380;-71
2022/04/21 10:04:20;;;;;;;4.50;2.90;;;16.60;99.90;;;;;;5111995;27;20469;-69
2022/04/21 10:06:47;;;;;;;4.30;2.90;;;16.50;99.90;;;;;;5104028;27;20366;-69
2022/04/21 10:09:14;;;;;;;3.70;2.80;;;16.50;99.90;;;;;;5119655;27;20227;-69
2022/04/21 10:11:43;;;;;;;5.13;2.95;;;16.30;99.90;;;;;;5108331;27;20043;-71
2022/04/21 10:14:15;;;;;;;3.38;2.58;;;16.10;99.90;;;;;;5112800;27;20110;-71
2022/04/21 10:16:42;;;;;;;3.42;2.90;;;16.40;99.90;;;;;;5126469;27;20050;-70
2022/04/21 10:19:12;;;;;;;3.63;2.55;;;16.50;99.90;;;;;;5129828;27;20030;-70
2022/04/21 10:21:56;;;;;;;2.50;1.98;;;16.50;99.90;;;;;;5110564;27;20039;-70
2022/04/21 10:24:26;;;;;;;3.43;2.47;;;16.90;99.90;;;;;;5114550;27;20102;-70
2022/04/21 10:26:52;;;;;;;2.70;2.30;;;16.60;99.90;;;;;;5100944;27;20674;-71
2022/04/21 10:29:23;;;;;;;3.03;2.13;;;17.10;99.90;;;;;;5126781;27;20050;-71
2022/04/21 10:32:03;;;;;;;4.22;2.42;;;16.50;99.60;;;;;;5123307;27;20043;-70
2022/04/21 10:34:48;;;;;;;5.63;2.67;;;16.10;98.90;;;;;;5099407;27;20237;-71
2022/04/21 10:37:21;;;;;;;2.70;2.10;;;15.90;99.40;;;;;;5132263;27;20035;-71
2022/04/21 10:40:05;;;;;;;2.70;2.10;;;16.00;99.90;;;;;;5095352;27;20042;-71
2022/04/21 10:42:55;;;;;;;3.42;2.40;;;16.00;98.20;;;;;;5112842;27;20071;-71
2022/04/21 10:45:24;;;;;;;3.53;2.42;;;16.30;99.90;;;;;;5106500;27;20035;-71
2022/04/21 10:48:10;;;;;;;3.35;2.17;;;16.20;99.90;;;;;;5125239;27;20053;-70
2022/04/21 10:50:38;;;;;;;3.97;2.40;;;16.60;97.80;;;;;;5136723;27;20043;-70
2022/04/21 10:58:33;;;;;;;2.47;2.00;;;16.70;96.90;;;;;;5111818;27;20335;-70
2022/04/21 11:01:31;;;;;;;3.05;2.20;;;17.20;97.30;;;;;;5116967;27;20039;-71
2022/04/21 11:04:07;;;;;;;3.85;2.55;;;17.30;93.70;;;;;;5125561;27;20058;-71
2022/04/21 11:06:51;;;;;;;3.53;2.78;;;16.70;94.40;;;;;;5131827;27;20050;-69
2022/04/21 11:09:42;;;;;;;4.70;2.05;;;17.20;95.90;;;;;;5122375;27;20282;-69
2022/04/21 11:12:11;;;;;;;3.30;2.20;;;17.00;91.30;;;;;;5124677;28;20031;-70
2022/04/21 11:14:39;;;;;;;3.92;2.20;;;17.00;94.00;;;;;;5122827;27;20076;-70
2022/04/21 11:17:06;;;;;;;3.45;2.35;;;17.50;93.70;;;;;;5093462;28;20364;-70
2022/04/21 11:19:35;;;;;;;3.00;2.30;;;17.90;94.40;;;;;;5120551;28;20058;-70
2022/04/21 11:22:03;;;;;;;2.78;2.50;;;17.30;92.90;;;;;;5121740;27;20038;-70
2022/04/21 11:24:55;;;;;;;3.55;2.40;;;17.30;94.10;;;;;;5120915;28;20035;-70
2022/04/21 11:27:24;;;;;;;2.78;2.30;;;17.70;95.30;;;;;;5120015;28;20317;-69
2022/04/21 11:29:50;;;;;;;2.83;2.28;;;17.60;92.50;;;;;;5120990;27;20050;-71
2022/04/21 11:32:17;;;;;;;2.65;2.45;;;17.90;92.20;;;;;;5119930;27;20031;-69
2022/04/21 11:35:16;;;;;;;2.33;2.13;;;18.00;91.00;;;;;;5124242;27;20038;-71
2022/04/21 11:37:58;;;;;;;2.40;2.13;;;18.30;84.20;;;;;;5131106;27;20049;-71
2022/04/21 11:40:28;;;;;;;2.95;2.10;;;18.30;78.30;;;;;;5141034;27;20034;-69
2022/04/21 11:42:56;;;;;;;3.53;2.00;;;18.40;82.60;;;;;;5125933;28;20117;-68
2022/04/21 11:45:33;;;;;;;3.60;2.40;;;17.50;83.60;;;;;;5119691;27;20100;-69
2022/04/21 11:47:59;;;;;;;3.55;2.53;;;17.50;87.50;;;;;;5121056;27;20059;-70
2022/04/21 11:50:27;;;;;;;2.47;2.00;;;17.70;92.50;;;;;;5123721;27;20126;-70
2022/04/21 11:52:54;;;;;;;6.18;2.33;;;17.90;87.90;;;;;;5107633;27;20042;-70
2022/04/21 11:55:25;;;;;;;3.90;2.22;;;18.50;85.10;;;;;;5107000;27;20062;-71
2022/04/21 11:57:52;;;;;;;4.05;2.80;;;18.80;81.40;;;;;;5123733;27;20213;-70
2022/04/21 12:06:28;;;;;;;3.30;2.40;;;18.80;85.10;;;;;;5126572;27;20340;-70
2022/04/21 12:08:37;;;;;;;3.95;3.08;;;17.30;90.40;;;;;;5113596;27;20054;-70
2022/04/21 12:11:17;;;;;;;3.58;2.78;;;18.00;90.50;;;;;;5108036;27;20047;-70
2022/04/21 12:13:44;;;;;;;4.32;3.00;;;17.70;89.60;;;;;;5107249;27;20030;-71
2022/04/21 12:16:38;;;;;;;4.05;3.00;;;17.80;92.70;;;;;;5122433;27;20348;-70
2022/04/21 12:19:10;;;;;;;4.72;2.70;;;17.40;94.00;;;;;;5108469;27;20110;-71
2022/04/21 12:21:36;;;;;;;5.28;2.80;;;17.70;93.30;;;;;;5122691;27;20039;-70
2022/04/21 12:24:18;;;;;;;2.50;2.30;;;18.00;89.20;;;;;;5134335;27;20083;-67
2022/04/21 12:26:51;;;;;;;6.28;2.78;;;17.80;81.80;;;;;;5105426;27;20167;-68
2022/04/21 12:29:19;;;;;;;3.70;3.00;;;17.80;86.60;;;;;;5089047;27;20331;-69
2022/04/21 12:31:51;;;;;;;3.53;2.58;;;18.00;83.20;;;;;;5127952;27;20368;-70
2022/04/21 12:34:29;;;;;;;3.30;2.55;;;17.90;81.80;;;;;;5087774;27;20039;-70
2022/04/21 12:37:05;;;;;;;3.05;2.60;;;17.90;84.60;;;;;;5105684;27;20035;-70
2022/04/21 12:39:32;;;;;;;4.22;2.53;;;18.30;81.70;;;;;;5136020;27;20065;-70
2022/04/21 12:41:58;;;;;;;4.40;2.70;;;18.40;83.20;;;;;;5140815;27;20035;-71
2022/04/21 12:44:25;;;;;;;2.97;2.47;;;18.20;85.30;;;;;;5121480;27;20042;-70
2022/04/21 12:47:12;;;;;;;4.10;2.40;;;17.60;82.90;;;;;;5104816;27;20041;-72
2022/04/21 12:50:03;;;;;;;3.60;2.80;;;17.20;82.80;;;;;;5104447;27;20046;-70
2022/04/21 12:52:41;;;;;;;3.95;3.05;;;17.70;86.90;;;;;;5123448;27;20035;-69
2022/04/21 12:55:09;;;;;;;4.78;2.65;;;17.10;86.00;;;;;;5142764;27;20035;-70
2022/04/21 12:57:36;;;;;;;3.15;2.60;;;17.20;84.20;;;;;;5122887;27;20393;-69
2022/04/21 13:00:06;;;;;;;4.00;2.75;;;17.70;84.20;;;;;;5093226;27;20062;-70
2022/04/21 13:02:32;;;;;;;4.68;2.75;;;17.30;85.70;;;;;;5139533;27;20058;-72
2022/04/21 13:05:00;;;;;;;3.92;2.80;;;17.40;85.80;;;;;;5142222;27;20275;-68
2022/04/21 13:07:26;;;;;;;5.10;2.80;;;17.00;84.20;;;;;;5125066;27;20046;-70
2022/04/21 13:09:53;;;;;;;4.05;2.90;;;17.00;86.30;;;;;;5124645;27;20046;-70
2022/04/21 13:12:18;;;;;;;4.82;2.70;;;17.30;84.40;;;;;;5139134;27;20384;-70
2022/04/21 13:14:44;;;;;;;4.40;2.83;;;17.30;83.20;;;;;;5121424;27;20045;-71
2022/04/21 13:17:10;;;;;;;3.30;3.00;;;17.80;85.90;;;;;;5138369;27;20033;-71
2022/04/21 13:19:35;;;;;;;5.72;3.03;;;17.80;82.70;;;;;;5124853;27;20066;-71
2022/04/21 13:22:02;;;;;;;2.78;2.33;;;17.40;84.60;;;;;;5103457;27;20232;-70
2022/04/21 13:24:32;;;;;;;3.83;2.90;;;17.70;84.50;;;;;;5113169;27;20038;-70
2022/04/21 13:26:59;;;;;;;4.72;3.25;;;17.50;82.50;;;;;;5125190;27;20038;-69
2022/04/21 13:29:29;;;;;;;4.95;3.08;;;17.60;83.40;;;;;;5141414;27;20069;-70
2022/04/21 13:34:39;;;;;;;;;;;17.50;82.60;;;;;;5141435;27;20081;-70
2022/04/21 13:37:05;;;;;;;3.42;2.75;;;17.40;80.90;;;;;;5124108;27;19915;-69
2022/04/21 13:39:31;;;;;;;4.03;3.40;;;17.40;81.30;;;;;;5124421;27;20045;-71
2022/04/21 13:41:57;;;;;;;4.15;3.30;;;17.30;81.90;;;;;;5134013;27;20031;-71
2022/04/21 13:44:23;;;;;;;5.32;2.97;;;17.60;83.10;;;;;;5139584;27;20031;-69
2022/04/21 13:46:49;;;;;;;6.00;3.20;;;17.80;81.00;;;;;;5124491;27;20041;-70